sensor_id;sensor_type;location;lat;lon;timestamp;P1;durP1;ratioP1;P2;durP2;ratioP2
15876;SDS011;8037;51.666;7.834;2022-11-15T00:01:48;6.03;;;4.20;;
15876;SDS011;8037;51.666;7.834;2022-11-15T00:04:14;4.27;;;3.97;;
15876;SDS011;8037;51.666;7.834;2022-11-15T00:06:40;5.20;;;4.10;;
15876;SDS011;8037;51.666;7.834;2022-11-15T00:09:06;5.83;;;3.60;;
15876;SDS011;8037;51.666;7.834;2022-11-15T00:11:32;7.90;;;3.90;;
15876;SDS011;8037;51.666;7.834;2022-11-15T00:13:58;4.30;;;3.50;;
15876;SDS011;8037;51.666;7.834;2022-11-15T00:16:26;11.53;;;4.33;;
15876;SDS011;8037;51.666;7.834;2022-11-15T00:18:52;3.93;;;3.33;;
15876;SDS011;8037;51.666;7.834;2022-11-15T00:21:18;4.30;;;3.90;;
15876;SDS011;8037;51.666;7.834;2022-11-15T00:23:44;3.90;;;3.60;;
15876;SDS011;8037;51.666;7.834;2022-11-15T00:26:11;4.80;;;4.00;;
15876;SDS011;8037;51.666;7.834;2022-11-15T00:28:38;7.07;;;5.23;;
15876;SDS011;8037;51.666;7.834;2022-11-15T00:31:05;4.70;;;4.00;;
15876;SDS011;8037;51.666;7.834;2022-11-15T00:33:32;4.00;;;3.70;;
15876;SDS011;8037;51.666;7.834;2022-11-15T00:36:05;4.93;;;4.20;;
15876;SDS011;8037;51.666;7.834;2022-11-15T00:38:34;4.00;;;3.50;;
15876;SDS011;8037;51.666;7.834;2022-11-15T00:41:01;5.13;;;4.23;;
15876;SDS011;8037;51.666;7.834;2022-11-15T00:43:28;4.87;;;4.03;;
15876;SDS011;8037;51.666;7.834;2022-11-15T00:45:54;8.93;;;3.67;;
15876;SDS011;8037;51.666;7.834;2022-11-15T00:48:20;4.67;;;4.10;;
15876;SDS011;8037;51.666;7.834;2022-11-15T00:50:46;3.57;;;3.23;;
15876;SDS011;8037;51.666;7.834;2022-11-15T00:53:12;5.17;;;3.90;;
15876;SDS011;8037;51.666;7.834;2022-11-15T00:55:38;5.27;;;3.90;;
15876;SDS011;8037;51.666;7.834;2022-11-15T00:58:04;3.70;;;3.40;;
15876;SDS011;8037;51.666;7.834;2022-11-15T01:00:30;10.07;;;3.90;;
15876;SDS011;8037;51.666;7.834;2022-11-15T01:02:55;8.73;;;3.67;;
15876;SDS011;8037;51.666;7.834;2022-11-15T01:05:21;9.60;;;3.47;;
15876;SDS011;8037;51.666;7.834;2022-11-15T01:07:50;9.53;;;3.90;;
15876;SDS011;8037;51.666;7.834;2022-11-15T01:10:17;3.93;;;3.63;;
15876;SDS011;8037;51.666;7.834;2022-11-15T01:12:43;4.47;;;4.07;;
15876;SDS011;8037;51.666;7.834;2022-11-15T01:15:09;7.97;;;4.57;;
15876;SDS011;8037;51.666;7.834;2022-11-15T01:17:35;6.33;;;4.50;;
15876;SDS011;8037;51.666;7.834;2022-11-15T01:20:01;4.70;;;4.30;;
15876;SDS011;8037;51.666;7.834;2022-11-15T01:22:27;7.30;;;3.70;;
15876;SDS011;8037;51.666;7.834;2022-11-15T01:24:53;6.70;;;4.23;;
15876;SDS011;8037;51.666;7.834;2022-11-15T01:27:19;2.83;;;2.63;;
15876;SDS011;8037;51.666;7.834;2022-11-15T01:29:45;3.53;;;3.23;;
15876;SDS011;8037;51.666;7.834;2022-11-15T01:32:11;4.67;;;4.20;;
15876;SDS011;8037;51.666;7.834;2022-11-15T01:34:37;5.17;;;3.53;;
15876;SDS011;8037;51.666;7.834;2022-11-15T01:37:03;4.17;;;3.77;;
15876;SDS011;8037;51.666;7.834;2022-11-15T01:39:29;4.87;;;3.80;;
15876;SDS011;8037;51.666;7.834;2022-11-15T01:41:55;4.20;;;3.80;;
15876;SDS011;8037;51.666;7.834;2022-11-15T01:44:38;4.30;;;3.70;;
15876;SDS011;8037;51.666;7.834;2022-11-15T01:47:19;5.57;;;3.40;;
15876;SDS011;8037;51.666;7.834;2022-11-15T01:49:55;3.80;;;3.40;;
15876;SDS011;8037;51.666;7.834;2022-11-15T01:52:25;4.77;;;3.70;;
15876;SDS011;8037;51.666;7.834;2022-11-15T01:54:56;4.17;;;3.73;;
15876;SDS011;8037;51.666;7.834;2022-11-15T01:57:30;5.20;;;4.07;;
15876;SDS011;8037;51.666;7.834;2022-11-15T01:59:56;3.23;;;2.93;;
15876;SDS011;8037;51.666;7.834;2022-11-15T02:02:23;5.97;;;4.20;;
15876;SDS011;8037;51.666;7.834;2022-11-15T02:04:49;4.07;;;3.50;;
15876;SDS011;8037;51.666;7.834;2022-11-15T02:07:16;9.63;;;3.40;;
15876;SDS011;8037;51.666;7.834;2022-11-15T02:09:43;3.60;;;3.40;;
15876;SDS011;8037;51.666;7.834;2022-11-15T02:12:10;21.10;;;3.23;;
15876;SDS011;8037;51.666;7.834;2022-11-15T02:14:39;4.23;;;3.20;;
15876;SDS011;8037;51.666;7.834;2022-11-15T02:17:19;6.70;;;3.10;;
15876;SDS011;8037;51.666;7.834;2022-11-15T02:31:13;2.97;;;2.77;;
15876;SDS011;8037;51.666;7.834;2022-11-15T02:34:00;3.77;;;3.47;;
15876;SDS011;8037;51.666;7.834;2022-11-15T02:39:46;9.60;;;3.80;;
15876;SDS011;8037;51.666;7.834;2022-11-15T02:42:21;4.00;;;3.67;;
15876;SDS011;8037;51.666;7.834;2022-11-15T02:45:09;5.20;;;3.70;;
15876;SDS011;8037;51.666;7.834;2022-11-15T02:47:41;5.63;;;3.70;;
15876;SDS011;8037;51.666;7.834;2022-11-15T02:50:10;5.63;;;4.03;;
15876;SDS011;8037;51.666;7.834;2022-11-15T02:52:37;3.50;;;2.97;;
15876;SDS011;8037;51.666;7.834;2022-11-15T02:55:03;6.10;;;3.40;;
15876;SDS011;8037;51.666;7.834;2022-11-15T03:00:21;3.00;;;2.67;;
15876;SDS011;8037;51.666;7.834;2022-11-15T03:06:00;6.30;;;3.40;;
15876;SDS011;8037;51.666;7.834;2022-11-15T03:09:03;4.20;;;3.27;;
15876;SDS011;8037;51.666;7.834;2022-11-15T03:11:34;4.30;;;3.03;;
15876;SDS011;8037;51.666;7.834;2022-11-15T03:14:14;4.07;;;2.70;;
15876;SDS011;8037;51.666;7.834;2022-11-15T03:19:17;3.00;;;2.80;;
15876;SDS011;8037;51.666;7.834;2022-11-15T03:21:53;3.20;;;2.87;;
15876;SDS011;8037;51.666;7.834;2022-11-15T03:24:22;4.80;;;2.43;;
15876;SDS011;8037;51.666;7.834;2022-11-15T03:26:50;8.70;;;3.40;;
15876;SDS011;8037;51.666;7.834;2022-11-15T03:29:21;5.27;;;3.23;;
15876;SDS011;8037;51.666;7.834;2022-11-15T03:31:54;4.63;;;3.37;;
15876;SDS011;8037;51.666;7.834;2022-11-15T03:34:27;6.60;;;3.20;;
15876;SDS011;8037;51.666;7.834;2022-11-15T03:36:57;4.23;;;3.63;;
15876;SDS011;8037;51.666;7.834;2022-11-15T03:39:23;3.37;;;3.17;;
15876;SDS011;8037;51.666;7.834;2022-11-15T03:44:40;3.30;;;3.00;;
15876;SDS011;8037;51.666;7.834;2022-11-15T03:47:35;5.83;;;3.40;;
15876;SDS011;8037;51.666;7.834;2022-11-15T03:50:10;6.33;;;3.43;;
15876;SDS011;8037;51.666;7.834;2022-11-15T03:52:39;3.00;;;2.80;;
15876;SDS011;8037;51.666;7.834;2022-11-15T03:55:06;3.67;;;3.27;;
15876;SDS011;8037;51.666;7.834;2022-11-15T03:57:34;4.37;;;3.20;;
15876;SDS011;8037;51.666;7.834;2022-11-15T04:00:00;16.13;;;3.67;;
15876;SDS011;8037;51.666;7.834;2022-11-15T04:02:26;6.03;;;2.83;;
15876;SDS011;8037;51.666;7.834;2022-11-15T04:04:51;6.93;;;3.60;;
15876;SDS011;8037;51.666;7.834;2022-11-15T04:07:17;4.33;;;2.97;;
15876;SDS011;8037;51.666;7.834;2022-11-15T04:09:43;3.97;;;2.63;;
15876;SDS011;8037;51.666;7.834;2022-11-15T04:12:27;4.37;;;3.30;;
15876;SDS011;8037;51.666;7.834;2022-11-15T04:14:59;11.00;;;3.70;;
15876;SDS011;8037;51.666;7.834;2022-11-15T04:17:33;6.67;;;3.47;;
15876;SDS011;8037;51.666;7.834;2022-11-15T04:20:10;4.27;;;2.90;;
15876;SDS011;8037;51.666;7.834;2022-11-15T04:22:57;4.43;;;3.70;;
15876;SDS011;8037;51.666;7.834;2022-11-15T04:25:43;4.03;;;2.87;;
15876;SDS011;8037;51.666;7.834;2022-11-15T04:28:09;7.67;;;2.77;;
15876;SDS011;8037;51.666;7.834;2022-11-15T04:30:35;5.40;;;3.07;;
15876;SDS011;8037;51.666;7.834;2022-11-15T04:33:01;5.60;;;3.20;;
15876;SDS011;8037;51.666;7.834;2022-11-15T04:35:27;3.40;;;3.13;;
15876;SDS011;8037;51.666;7.834;2022-11-15T04:37:53;2.97;;;2.77;;
15876;SDS011;8037;51.666;7.834;2022-11-15T04:40:20;2.97;;;2.87;;
15876;SDS011;8037;51.666;7.834;2022-11-15T04:42:46;4.43;;;3.70;;
15876;SDS011;8037;51.666;7.834;2022-11-15T04:45:11;2.90;;;2.70;;
15876;SDS011;8037;51.666;7.834;2022-11-15T04:47:37;8.20;;;2.30;;
15876;SDS011;8037;51.666;7.834;2022-11-15T04:50:03;9.83;;;3.33;;
15876;SDS011;8037;51.666;7.834;2022-11-15T04:52:28;9.87;;;3.47;;
15876;SDS011;8037;51.666;7.834;2022-11-15T04:54:54;3.73;;;3.43;;
15876;SDS011;8037;51.666;7.834;2022-11-15T04:57:20;3.37;;;3.10;;
15876;SDS011;8037;51.666;7.834;2022-11-15T04:59:46;3.47;;;3.17;;
15876;SDS011;8037;51.666;7.834;2022-11-15T05:02:12;4.53;;;3.00;;
15876;SDS011;8037;51.666;7.834;2022-11-15T05:04:38;2.83;;;2.53;;
15876;SDS011;8037;51.666;7.834;2022-11-15T05:07:04;3.67;;;2.90;;
15876;SDS011;8037;51.666;7.834;2022-11-15T05:09:30;4.47;;;2.97;;
15876;SDS011;8037;51.666;7.834;2022-11-15T05:11:56;4.20;;;3.73;;
15876;SDS011;8037;51.666;7.834;2022-11-15T05:14:22;3.33;;;3.13;;
15876;SDS011;8037;51.666;7.834;2022-11-15T05:16:47;2.30;;;2.10;;
15876;SDS011;8037;51.666;7.834;2022-11-15T05:19:13;3.13;;;2.83;;
15876;SDS011;8037;51.666;7.834;2022-11-15T05:21:38;5.07;;;3.43;;
15876;SDS011;8037;51.666;7.834;2022-11-15T05:24:04;3.60;;;3.20;;
15876;SDS011;8037;51.666;7.834;2022-11-15T05:26:30;3.77;;;3.43;;
15876;SDS011;8037;51.666;7.834;2022-11-15T05:28:57;3.87;;;3.43;;
15876;SDS011;8037;51.666;7.834;2022-11-15T05:31:23;3.30;;;3.10;;
15876;SDS011;8037;51.666;7.834;2022-11-15T05:33:50;3.33;;;3.00;;
15876;SDS011;8037;51.666;7.834;2022-11-15T05:36:25;2.70;;;2.50;;
15876;SDS011;8037;51.666;7.834;2022-11-15T05:39:03;2.80;;;2.60;;
15876;SDS011;8037;51.666;7.834;2022-11-15T05:41:34;3.57;;;3.27;;
15876;SDS011;8037;51.666;7.834;2022-11-15T05:44:02;4.40;;;3.60;;
15876;SDS011;8037;51.666;7.834;2022-11-15T05:46:31;3.10;;;2.90;;
15876;SDS011;8037;51.666;7.834;2022-11-15T05:48:58;4.87;;;4.40;;
15876;SDS011;8037;51.666;7.834;2022-11-15T05:51:24;5.70;;;3.60;;
15876;SDS011;8037;51.666;7.834;2022-11-15T05:53:53;4.20;;;3.90;;
15876;SDS011;8037;51.666;7.834;2022-11-15T05:56:21;3.00;;;2.80;;
15876;SDS011;8037;51.666;7.834;2022-11-15T05:58:47;3.90;;;3.60;;
15876;SDS011;8037;51.666;7.834;2022-11-15T06:01:13;4.07;;;3.07;;
15876;SDS011;8037;51.666;7.834;2022-11-15T06:03:39;4.47;;;4.07;;
15876;SDS011;8037;51.666;7.834;2022-11-15T06:06:05;4.80;;;3.20;;
15876;SDS011;8037;51.666;7.834;2022-11-15T06:08:31;5.03;;;4.07;;
15876;SDS011;8037;51.666;7.834;2022-11-15T06:11:02;3.53;;;3.30;;
15876;SDS011;8037;51.666;7.834;2022-11-15T06:13:31;2.87;;;2.67;;
15876;SDS011;8037;51.666;7.834;2022-11-15T06:15:57;3.70;;;3.40;;
15876;SDS011;8037;51.666;7.834;2022-11-15T06:18:23;3.47;;;3.13;;
15876;SDS011;8037;51.666;7.834;2022-11-15T06:20:49;3.20;;;2.90;;
15876;SDS011;8037;51.666;7.834;2022-11-15T06:23:15;4.20;;;2.93;;
15876;SDS011;8037;51.666;7.834;2022-11-15T06:25:40;4.40;;;3.20;;
15876;SDS011;8037;51.666;7.834;2022-11-15T06:28:06;2.80;;;2.53;;
15876;SDS011;8037;51.666;7.834;2022-11-15T06:30:32;2.20;;;2.10;;
15876;SDS011;8037;51.666;7.834;2022-11-15T06:32:58;2.50;;;2.30;;
15876;SDS011;8037;51.666;7.834;2022-11-15T06:35:26;2.30;;;2.10;;
15876;SDS011;8037;51.666;7.834;2022-11-15T06:37:51;2.53;;;2.43;;
15876;SDS011;8037;51.666;7.834;2022-11-15T06:40:17;2.70;;;2.50;;
15876;SDS011;8037;51.666;7.834;2022-11-15T06:42:43;3.20;;;2.27;;
15876;SDS011;8037;51.666;7.834;2022-11-15T06:45:08;1.83;;;1.73;;
15876;SDS011;8037;51.666;7.834;2022-11-15T06:47:34;1.80;;;1.70;;
15876;SDS011;8037;51.666;7.834;2022-11-15T06:49:59;9.77;;;2.40;;
15876;SDS011;8037;51.666;7.834;2022-11-15T06:52:25;4.67;;;1.93;;
15876;SDS011;8037;51.666;7.834;2022-11-15T06:54:51;2.27;;;2.07;;
15876;SDS011;8037;51.666;7.834;2022-11-15T06:57:17;2.13;;;2.00;;
15876;SDS011;8037;51.666;7.834;2022-11-15T06:59:42;4.10;;;2.30;;
15876;SDS011;8037;51.666;7.834;2022-11-15T07:02:12;2.70;;;2.40;;
15876;SDS011;8037;51.666;7.834;2022-11-15T07:04:38;2.70;;;2.03;;
15876;SDS011;8037;51.666;7.834;2022-11-15T07:07:04;8.00;;;2.27;;
15876;SDS011;8037;51.666;7.834;2022-11-15T07:09:30;2.17;;;1.97;;
15876;SDS011;8037;51.666;7.834;2022-11-15T07:11:56;1.90;;;1.80;;
15876;SDS011;8037;51.666;7.834;2022-11-15T07:14:22;2.20;;;2.10;;
15876;SDS011;8037;51.666;7.834;2022-11-15T07:16:47;2.47;;;2.27;;
15876;SDS011;8037;51.666;7.834;2022-11-15T07:19:13;2.40;;;2.03;;
15876;SDS011;8037;51.666;7.834;2022-11-15T07:21:39;2.40;;;2.20;;
15876;SDS011;8037;51.666;7.834;2022-11-15T07:24:05;2.03;;;1.93;;
15876;SDS011;8037;51.666;7.834;2022-11-15T07:26:31;1.90;;;1.80;;
15876;SDS011;8037;51.666;7.834;2022-11-15T07:28:57;2.23;;;2.13;;
15876;SDS011;8037;51.666;7.834;2022-11-15T07:31:23;2.00;;;1.50;;
15876;SDS011;8037;51.666;7.834;2022-11-15T07:33:50;1.57;;;1.47;;
15876;SDS011;8037;51.666;7.834;2022-11-15T07:36:16;3.33;;;1.70;;
15876;SDS011;8037;51.666;7.834;2022-11-15T07:38:41;1.30;;;1.20;;
15876;SDS011;8037;51.666;7.834;2022-11-15T07:41:07;5.43;;;1.30;;
15876;SDS011;8037;51.666;7.834;2022-11-15T07:43:33;2.30;;;1.23;;
15876;SDS011;8037;51.666;7.834;2022-11-15T07:46:04;3.60;;;1.33;;
15876;SDS011;8037;51.666;7.834;2022-11-15T07:48:30;1.40;;;1.30;;
15876;SDS011;8037;51.666;7.834;2022-11-15T07:50:57;1.40;;;1.30;;
15876;SDS011;8037;51.666;7.834;2022-11-15T07:53:23;1.60;;;1.50;;
15876;SDS011;8037;51.666;7.834;2022-11-15T07:55:48;2.07;;;1.50;;
15876;SDS011;8037;51.666;7.834;2022-11-15T07:58:14;1.90;;;1.70;;
15876;SDS011;8037;51.666;7.834;2022-11-15T08:00:39;1.50;;;1.40;;
15876;SDS011;8037;51.666;7.834;2022-11-15T08:03:09;1.00;;;0.97;;
15876;SDS011;8037;51.666;7.834;2022-11-15T08:05:37;0.87;;;0.87;;
15876;SDS011;8037;51.666;7.834;2022-11-15T08:08:04;1.57;;;0.90;;
15876;SDS011;8037;51.666;7.834;2022-11-15T08:10:30;1.67;;;1.30;;
15876;SDS011;8037;51.666;7.834;2022-11-15T08:13:03;1.07;;;0.83;;
15876;SDS011;8037;51.666;7.834;2022-11-15T08:15:30;1.80;;;1.27;;
15876;SDS011;8037;51.666;7.834;2022-11-15T08:17:57;1.53;;;0.97;;
15876;SDS011;8037;51.666;7.834;2022-11-15T08:20:25;0.60;;;0.60;;
15876;SDS011;8037;51.666;7.834;2022-11-15T08:22:53;3.70;;;1.03;;
15876;SDS011;8037;51.666;7.834;2022-11-15T08:25:19;2.60;;;0.97;;
15876;SDS011;8037;51.666;7.834;2022-11-15T08:27:45;0.70;;;0.70;;
15876;SDS011;8037;51.666;7.834;2022-11-15T08:30:11;2.97;;;1.53;;
15876;SDS011;8037;51.666;7.834;2022-11-15T08:32:37;1.67;;;0.80;;
15876;SDS011;8037;51.666;7.834;2022-11-15T08:35:03;0.80;;;0.80;;
15876;SDS011;8037;51.666;7.834;2022-11-15T08:37:29;0.83;;;0.83;;
15876;SDS011;8037;51.666;7.834;2022-11-15T08:39:55;1.10;;;0.90;;
15876;SDS011;8037;51.666;7.834;2022-11-15T08:42:21;0.80;;;0.80;;
15876;SDS011;8037;51.666;7.834;2022-11-15T08:44:47;4.83;;;0.70;;
15876;SDS011;8037;51.666;7.834;2022-11-15T08:47:12;1.10;;;0.97;;
15876;SDS011;8037;51.666;7.834;2022-11-15T08:49:38;1.20;;;1.03;;
15876;SDS011;8037;51.666;7.834;2022-11-15T08:52:05;1.00;;;1.00;;
15876;SDS011;8037;51.666;7.834;2022-11-15T08:54:30;0.83;;;0.77;;
15876;SDS011;8037;51.666;7.834;2022-11-15T08:56:56;1.03;;;0.87;;
15876;SDS011;8037;51.666;7.834;2022-11-15T08:59:22;0.50;;;0.50;;
15876;SDS011;8037;51.666;7.834;2022-11-15T09:01:48;1.17;;;0.90;;
15876;SDS011;8037;51.666;7.834;2022-11-15T09:04:14;11.07;;;1.00;;
15876;SDS011;8037;51.666;7.834;2022-11-15T09:06:40;1.20;;;0.83;;
15876;SDS011;8037;51.666;7.834;2022-11-15T09:09:05;0.60;;;0.60;;
15876;SDS011;8037;51.666;7.834;2022-11-15T09:11:31;3.30;;;0.73;;
15876;SDS011;8037;51.666;7.834;2022-11-15T09:13:57;1.13;;;1.00;;
15876;SDS011;8037;51.666;7.834;2022-11-15T09:16:23;0.93;;;0.83;;
15876;SDS011;8037;51.666;7.834;2022-11-15T09:18:49;0.60;;;0.60;;
15876;SDS011;8037;51.666;7.834;2022-11-15T09:21:15;1.30;;;1.20;;
15876;SDS011;8037;51.666;7.834;2022-11-15T09:23:41;1.10;;;0.93;;
15876;SDS011;8037;51.666;7.834;2022-11-15T09:26:06;2.90;;;1.60;;
15876;SDS011;8037;51.666;7.834;2022-11-15T09:28:32;1.33;;;1.33;;
15876;SDS011;8037;51.666;7.834;2022-11-15T09:30:59;1.20;;;1.20;;
15876;SDS011;8037;51.666;7.834;2022-11-15T09:33:25;3.13;;;1.70;;
15876;SDS011;8037;51.666;7.834;2022-11-15T09:35:51;3.63;;;3.07;;
15876;SDS011;8037;51.666;7.834;2022-11-15T09:38:17;2.53;;;1.10;;
15876;SDS011;8037;51.666;7.834;2022-11-15T09:40:43;1.23;;;1.13;;
15876;SDS011;8037;51.666;7.834;2022-11-15T09:43:25;1.70;;;1.33;;
15876;SDS011;8037;51.666;7.834;2022-11-15T09:46:23;3.07;;;0.90;;
15876;SDS011;8037;51.666;7.834;2022-11-15T09:48:59;0.90;;;0.90;;
15876;SDS011;8037;51.666;7.834;2022-11-15T09:54:13;0.70;;;0.70;;
15876;SDS011;8037;51.666;7.834;2022-11-15T09:56:46;0.80;;;0.80;;
15876;SDS011;8037;51.666;7.834;2022-11-15T10:01:59;1.57;;;0.50;;
15876;SDS011;8037;51.666;7.834;2022-11-15T10:04:27;1.90;;;0.80;;
15876;SDS011;8037;51.666;7.834;2022-11-15T10:07:00;4.93;;;0.77;;
15876;SDS011;8037;51.666;7.834;2022-11-15T10:12:18;1.30;;;0.63;;
15876;SDS011;8037;51.666;7.834;2022-11-15T10:14:45;3.00;;;1.20;;
15876;SDS011;8037;51.666;7.834;2022-11-15T10:17:19;1.00;;;0.90;;
15876;SDS011;8037;51.666;7.834;2022-11-15T10:24:58;2.50;;;2.30;;
15876;SDS011;8037;51.666;7.834;2022-11-15T10:27:38;4.63;;;1.30;;
15876;SDS011;8037;51.666;7.834;2022-11-15T10:30:12;1.20;;;1.10;;
15876;SDS011;8037;51.666;7.834;2022-11-15T10:32:40;1.10;;;0.73;;
15876;SDS011;8037;51.666;7.834;2022-11-15T10:35:25;1.10;;;0.60;;
15876;SDS011;8037;51.666;7.834;2022-11-15T10:37:58;0.80;;;0.70;;
15876;SDS011;8037;51.666;7.834;2022-11-15T10:40:34;0.83;;;0.60;;
15876;SDS011;8037;51.666;7.834;2022-11-15T10:45:36;0.70;;;0.70;;
15876;SDS011;8037;51.666;7.834;2022-11-15T10:50:36;9.07;;;0.90;;
15876;SDS011;8037;51.666;7.834;2022-11-15T10:53:03;0.80;;;0.70;;
15876;SDS011;8037;51.666;7.834;2022-11-15T10:55:30;0.93;;;0.50;;
15876;SDS011;8037;51.666;7.834;2022-11-15T10:58:02;3.50;;;0.93;;
15876;SDS011;8037;51.666;7.834;2022-11-15T11:00:33;2.10;;;1.20;;
15876;SDS011;8037;51.666;7.834;2022-11-15T11:03:02;1.43;;;0.80;;
15876;SDS011;8037;51.666;7.834;2022-11-15T11:05:35;0.60;;;0.60;;
15876;SDS011;8037;51.666;7.834;2022-11-15T11:10:39;0.70;;;0.70;;
15876;SDS011;8037;51.666;7.834;2022-11-15T11:21:30;1.50;;;0.90;;
15876;SDS011;8037;51.666;7.834;2022-11-15T11:24:16;1.23;;;0.90;;
15876;SDS011;8037;51.666;7.834;2022-11-15T11:29:53;1.37;;;1.07;;
15876;SDS011;8037;51.666;7.834;2022-11-15T11:33:22;3.10;;;1.00;;
15876;SDS011;8037;51.666;7.834;2022-11-15T11:35:34;2.60;;;0.70;;
15876;SDS011;8037;51.666;7.834;2022-11-15T11:46:37;3.77;;;3.00;;
15876;SDS011;8037;51.666;7.834;2022-11-15T11:48:47;1.60;;;1.50;;
15876;SDS011;8037;51.666;7.834;2022-11-15T11:53:52;1.53;;;1.43;;
15876;SDS011;8037;51.666;7.834;2022-11-15T11:56:24;1.40;;;0.90;;
15876;SDS011;8037;51.666;7.834;2022-11-15T11:58:53;1.73;;;0.97;;
15876;SDS011;8037;51.666;7.834;2022-11-15T12:01:23;1.20;;;1.10;;
15876;SDS011;8037;51.666;7.834;2022-11-15T12:06:31;1.10;;;1.00;;
15876;SDS011;8037;51.666;7.834;2022-11-15T12:09:06;3.80;;;0.77;;
15876;SDS011;8037;51.666;7.834;2022-11-15T12:11:43;0.83;;;0.77;;
15876;SDS011;8037;51.666;7.834;2022-11-15T12:15:33;1.63;;;1.50;;
15876;SDS011;8037;51.666;7.834;2022-11-15T12:17:29;1.63;;;1.20;;
15876;SDS011;8037;51.666;7.834;2022-11-15T12:19:59;2.47;;;2.27;;
15876;SDS011;8037;51.666;7.834;2022-11-15T12:31:06;4.20;;;0.90;;
15876;SDS011;8037;51.666;7.834;2022-11-15T12:33:42;0.60;;;0.60;;
15876;SDS011;8037;51.666;7.834;2022-11-15T12:38:55;1.03;;;0.93;;
15876;SDS011;8037;51.666;7.834;2022-11-15T12:41:26;0.70;;;0.70;;
15876;SDS011;8037;51.666;7.834;2022-11-15T12:43:52;1.13;;;0.97;;
15876;SDS011;8037;51.666;7.834;2022-11-15T12:46:19;1.17;;;0.77;;
15876;SDS011;8037;51.666;7.834;2022-11-15T12:48:49;0.80;;;0.73;;
15876;SDS011;8037;51.666;7.834;2022-11-15T12:51:18;0.83;;;0.83;;
15876;SDS011;8037;51.666;7.834;2022-11-15T12:53:45;0.53;;;0.53;;
15876;SDS011;8037;51.666;7.834;2022-11-15T12:58:47;3.43;;;0.73;;
15876;SDS011;8037;51.666;7.834;2022-11-15T13:04:13;1.17;;;0.80;;
15876;SDS011;8037;51.666;7.834;2022-11-15T13:07:05;0.73;;;0.73;;
15876;SDS011;8037;51.666;7.834;2022-11-15T13:12:01;1.70;;;0.70;;
15876;SDS011;8037;51.666;7.834;2022-11-15T13:27:55;0.50;;;0.50;;
15876;SDS011;8037;51.666;7.834;2022-11-15T13:30:24;0.60;;;0.60;;
15876;SDS011;8037;51.666;7.834;2022-11-15T13:32:51;1.20;;;1.00;;
15876;SDS011;8037;51.666;7.834;2022-11-15T13:35:24;0.90;;;0.73;;
15876;SDS011;8037;51.666;7.834;2022-11-15T13:37:52;0.50;;;0.47;;
15876;SDS011;8037;51.666;7.834;2022-11-15T13:42:55;0.50;;;0.43;;
15876;SDS011;8037;51.666;7.834;2022-11-15T13:45:21;0.60;;;0.60;;
15876;SDS011;8037;51.666;7.834;2022-11-15T13:47:51;1.33;;;1.23;;
15876;SDS011;8037;51.666;7.834;2022-11-15T13:50:25;4.57;;;1.47;;
15876;SDS011;8037;51.666;7.834;2022-11-15T13:52:56;0.60;;;0.60;;
15876;SDS011;8037;51.666;7.834;2022-11-15T13:55:24;1.00;;;1.00;;
15876;SDS011;8037;51.666;7.834;2022-11-15T13:57:57;0.70;;;0.70;;
15876;SDS011;8037;51.666;7.834;2022-11-15T14:02:55;1.60;;;0.73;;
15876;SDS011;8037;51.666;7.834;2022-11-15T14:05:23;2.07;;;0.60;;
15876;SDS011;8037;51.666;7.834;2022-11-15T14:12:58;0.70;;;0.57;;
15876;SDS011;8037;51.666;7.834;2022-11-15T14:15:29;1.20;;;0.60;;
15876;SDS011;8037;51.666;7.834;2022-11-15T14:18:00;3.60;;;0.87;;
15876;SDS011;8037;51.666;7.834;2022-11-15T14:20:27;0.70;;;0.70;;
15876;SDS011;8037;51.666;7.834;2022-11-15T14:22:58;2.87;;;0.83;;
15876;SDS011;8037;51.666;7.834;2022-11-15T14:25:26;3.17;;;1.00;;
15876;SDS011;8037;51.666;7.834;2022-11-15T14:31:06;1.23;;;0.60;;
15876;SDS011;8037;51.666;7.834;2022-11-15T14:33:37;1.40;;;1.00;;
15876;SDS011;8037;51.666;7.834;2022-11-15T14:36:14;0.70;;;0.60;;
15876;SDS011;8037;51.666;7.834;2022-11-15T14:38:41;0.70;;;0.60;;
15876;SDS011;8037;51.666;7.834;2022-11-15T14:43:39;4.00;;;1.20;;
15876;SDS011;8037;51.666;7.834;2022-11-15T14:46:05;0.90;;;0.70;;
15876;SDS011;8037;51.666;7.834;2022-11-15T14:48:31;0.80;;;0.77;;
15876;SDS011;8037;51.666;7.834;2022-11-15T14:50:57;0.70;;;0.60;;
15876;SDS011;8037;51.666;7.834;2022-11-15T14:53:22;1.90;;;0.80;;
15876;SDS011;8037;51.666;7.834;2022-11-15T14:55:48;1.20;;;0.57;;
15876;SDS011;8037;51.666;7.834;2022-11-15T14:58:14;10.33;;;0.80;;
15876;SDS011;8037;51.666;7.834;2022-11-15T15:00:40;2.60;;;0.50;;
15876;SDS011;8037;51.666;7.834;2022-11-15T15:03:06;1.27;;;0.93;;
15876;SDS011;8037;51.666;7.834;2022-11-15T15:05:34;1.10;;;0.90;;
15876;SDS011;8037;51.666;7.834;2022-11-15T15:08:02;3.20;;;1.00;;
15876;SDS011;8037;51.666;7.834;2022-11-15T15:10:30;1.70;;;0.87;;
15876;SDS011;8037;51.666;7.834;2022-11-15T15:12:58;4.77;;;0.80;;
15876;SDS011;8037;51.666;7.834;2022-11-15T15:15:24;2.90;;;0.80;;
15876;SDS011;8037;51.666;7.834;2022-11-15T15:17:54;1.00;;;0.90;;
15876;SDS011;8037;51.666;7.834;2022-11-15T15:20:20;0.70;;;0.63;;
15876;SDS011;8037;51.666;7.834;2022-11-15T15:22:46;0.80;;;0.70;;
15876;SDS011;8037;51.666;7.834;2022-11-15T15:25:54;1.00;;;0.90;;
15876;SDS011;8037;51.666;7.834;2022-11-15T15:28:00;1.47;;;0.90;;
15876;SDS011;8037;51.666;7.834;2022-11-15T15:30:27;8.57;;;1.00;;
15876;SDS011;8037;51.666;7.834;2022-11-15T15:32:54;2.00;;;1.00;;
15876;SDS011;8037;51.666;7.834;2022-11-15T15:35:20;2.30;;;0.93;;
15876;SDS011;8037;51.666;7.834;2022-11-15T15:37:47;0.73;;;0.70;;
15876;SDS011;8037;51.666;7.834;2022-11-15T15:40:18;0.50;;;0.50;;
15876;SDS011;8037;51.666;7.834;2022-11-15T15:42:51;1.90;;;1.20;;
15876;SDS011;8037;51.666;7.834;2022-11-15T15:45:17;7.80;;;1.03;;
15876;SDS011;8037;51.666;7.834;2022-11-15T15:47:44;1.83;;;0.67;;
15876;SDS011;8037;51.666;7.834;2022-11-15T15:50:17;1.07;;;0.80;;
15876;SDS011;8037;51.666;7.834;2022-11-15T15:52:49;1.00;;;0.73;;
15876;SDS011;8037;51.666;7.834;2022-11-15T15:55:16;1.57;;;0.80;;
15876;SDS011;8037;51.666;7.834;2022-11-15T15:57:42;4.53;;;1.07;;
15876;SDS011;8037;51.666;7.834;2022-11-15T16:00:08;0.80;;;0.80;;
15876;SDS011;8037;51.666;7.834;2022-11-15T16:02:34;5.50;;;1.10;;
15876;SDS011;8037;51.666;7.834;2022-11-15T16:05:00;1.67;;;1.23;;
15876;SDS011;8037;51.666;7.834;2022-11-15T16:07:26;2.70;;;2.33;;
15876;SDS011;8037;51.666;7.834;2022-11-15T16:09:54;10.20;;;3.40;;
15876;SDS011;8037;51.666;7.834;2022-11-15T16:12:33;3.20;;;1.27;;
15876;SDS011;8037;51.666;7.834;2022-11-15T16:14:59;1.43;;;1.30;;
15876;SDS011;8037;51.666;7.834;2022-11-15T16:17:26;0.77;;;0.70;;
15876;SDS011;8037;51.666;7.834;2022-11-15T16:19:55;1.33;;;0.90;;
15876;SDS011;8037;51.666;7.834;2022-11-15T16:22:21;3.77;;;1.10;;
15876;SDS011;8037;51.666;7.834;2022-11-15T16:24:47;1.80;;;0.70;;
15876;SDS011;8037;51.666;7.834;2022-11-15T16:27:14;6.70;;;0.97;;
15876;SDS011;8037;51.666;7.834;2022-11-15T16:29:40;2.30;;;1.13;;
15876;SDS011;8037;51.666;7.834;2022-11-15T16:32:07;1.30;;;1.27;;
15876;SDS011;8037;51.666;7.834;2022-11-15T16:34:33;1.27;;;1.17;;
15876;SDS011;8037;51.666;7.834;2022-11-15T16:36:59;1.10;;;1.00;;
15876;SDS011;8037;51.666;7.834;2022-11-15T16:39:24;1.10;;;1.00;;
15876;SDS011;8037;51.666;7.834;2022-11-15T16:41:52;2.10;;;0.97;;
15876;SDS011;8037;51.666;7.834;2022-11-15T16:44:18;1.03;;;0.90;;
15876;SDS011;8037;51.666;7.834;2022-11-15T16:46:44;0.67;;;0.67;;
15876;SDS011;8037;51.666;7.834;2022-11-15T16:49:16;0.77;;;0.77;;
15876;SDS011;8037;51.666;7.834;2022-11-15T16:51:44;2.50;;;0.80;;
15876;SDS011;8037;51.666;7.834;2022-11-15T16:54:11;1.53;;;0.93;;
15876;SDS011;8037;51.666;7.834;2022-11-15T16:56:37;3.17;;;1.00;;
15876;SDS011;8037;51.666;7.834;2022-11-15T16:59:03;0.70;;;0.63;;
15876;SDS011;8037;51.666;7.834;2022-11-15T17:01:33;2.20;;;1.03;;
15876;SDS011;8037;51.666;7.834;2022-11-15T17:04:00;1.20;;;1.20;;
15876;SDS011;8037;51.666;7.834;2022-11-15T17:06:36;1.00;;;0.97;;
15876;SDS011;8037;51.666;7.834;2022-11-15T17:09:07;1.33;;;1.23;;
15876;SDS011;8037;51.666;7.834;2022-11-15T17:11:53;1.00;;;0.90;;